Hlavní strana
METAR-TAF:

METAR-TAF

Letiště :

Danville, Virginie, Spojené státy americké

zeměpisná šířka: 36-34-22N, zeměpisná délka: 079-20-10W, výška: 174 m

Aktuální stav počasí

Zpráva byla vytvořena před 24 minutami, v 15:53 UTC
Severní vítr 9 kt
Teplota 29°C
Vlhkost vzduchu 55%
Tlak 1015 hPa
Viditelnost: 16.1 km
Polojasno ve výšce 7500 ft

METAR: KDAN 021553Z AUTO 01009KT 10SM SCT075 29/19 A2996 RMK AO2 SLP133 T02890194

Čas: 12:17 (16:17 UTC)

Předpověď počasí

Zpráva byla vytvořena před 4 hodinami a 57 minutami, v 11:20 UTC
Předpověď platná od 02 v 12 UTC do 03 v 12 UTC
Severní vítr 4 kt
Viditelnost: 10 km
Skoro jasno ve výšce 8000 ft
Od 02 v 1500 UTC
Severovýchodní vítr 7 kt
Viditelnost: 10 km
Polojasno ve výšce 5000 ft
Od 03 v 0000 UTC
vítr z různých směrů 3 kt
Viditelnost: 10 km
Jasno

TAF: KDAN 021120Z 0212/0312 35004KT P6SM FEW080 FM021500 04007KT P6SM SCT050 FM030000 VRB03KT P6SM SKC

Stav a předpovědi počasí z více než 4 000 letišť (zprávy METAR a TAF).

Červené a žluté tečky na mapě představují dostupné meteorologické stanice.

Když kurzor umístíte na tečku, zobrazí se název stanice.

Pak kliknutím zobrazíte stav a předpověď počasí.

Chcete-li změnit mapu, kliknutím na zelené tlačítko se znaménkem +mapu přiblížíte, kliknutím na zelené tlačítko se znaménkem – mapu oddálíte a kliknutím na zelené šipky přejdete na sousední mapy.


METAR-TAF: